Rabbs Prairie, Texas
Current Conditions -  °F | °C
As of 11:55 AM on Thursday 30 Oct 2014 (Local Time) from K3T5 Reporting Station
Scattered Clouds Scattered Clouds  
Wind Chill: 71°   Ceiling: Unl
Heat Index: 71°   Visibility: 10mi
Dew Point: 57°   Wind: 0mph
Humidity: 62%   Direction: NA
Pressure: 30.14"   Gusts: NA
Location:  29.8569°N, 96.9311°W
Report Text: K3T5 301655Z AUTO 00000KT 10SM SCT046 22/14 A3014 RMK AO2 T02170141
Loading
Personal Weather Stations






























Interactive Weather Map
Tropical Storm Tracking
New forecast layout! Learn more

10-Day Weather Forecast

Advertisements
Track Severe Weather on mobile